Time;durP1;ratioP1;P1;durP2;ratioP2;P2;SDS_P1;SDS_P2;PMS_P1;PMS_P2;Temp;Humidity;BMP_temperature;BMP_pressure;BME280_temperature;BME280_humidity;BME280_pressure;Samples;Min_cycle;Max_cycle;Signal;HPM_P1;HPM_P2
2022/05/07 00:01:36;;;;;;;;;10.00;7.00;;;;;18.10;46.46;101679.72;5062746;28;45417;-64
2022/05/07 00:04:02;;;;;;;;;5.33;5.33;;;;;18.09;46.57;101675.34;5073634;27;45574;-66
2022/05/07 00:06:28;;;;;;;;;6.33;6.33;;;;;18.03;46.91;101671.19;5073640;27;45568;-66
2022/05/07 00:08:53;;;;;;;;;6.00;5.33;;;;;17.97;47.04;101670.63;5074130;27;45500;-67
2022/05/07 00:11:20;;;;;;;;;7.33;5.33;;;;;17.89;47.38;101665.66;5072136;27;45632;-65
2022/05/07 00:13:47;;;;;;;;;4.00;4.00;;;;;17.85;47.44;101672.09;5071768;27;46170;-65
2022/05/07 00:18:58;;;;;;;;;11.00;8.00;;;;;17.76;47.72;101667.16;5078404;27;45446;-66
2022/05/07 00:21:23;;;;;;;;;8.33;8.33;;;;;17.73;47.96;101670.88;5059922;28;45620;-67
2022/05/07 00:23:48;;;;;;;;;10.33;10.33;;;;;17.66;48.74;101664.09;5073464;27;46201;-65
2022/05/07 00:26:14;;;;;;;;;8.00;7.00;;;;;17.62;48.47;101663.41;5073860;27;45568;-66
2022/05/07 00:28:40;;;;;;;;;10.33;8.67;;;;;17.64;48.36;101671.28;5054774;27;45550;-65
2022/05/07 00:31:05;;;;;;;;;9.00;9.00;;;;;17.56;48.93;101668.13;5059593;28;45447;-65
2022/05/07 00:33:31;;;;;;;;;13.00;11.00;;;;;17.49;48.63;101669.34;5073348;27;45520;-65
2022/05/07 00:35:56;;;;;;;;;8.67;8.67;;;;;17.47;49.10;101668.56;5073433;27;45526;-64
2022/05/07 00:38:21;;;;;;;;;11.00;9.00;;;;;17.49;48.71;101666.69;5071884;28;45478;-65
2022/05/07 00:40:47;;;;;;;;;9.00;8.67;;;;;17.44;49.05;101669.59;5071681;28;45692;-65
2022/05/07 00:43:15;;;;;;;;;8.33;8.33;;;;;17.34;49.35;101657.66;5073251;27;46981;-66
2022/05/07 00:45:45;;;;;;;;;11.67;10.67;;;;;17.27;49.84;101648.22;5073333;27;45498;-66
2022/05/07 00:48:11;;;;;;;;;9.00;9.00;;;;;17.33;49.19;101659.44;5073558;27;45603;-68
2022/05/07 00:53:22;;;;;;;;;8.67;8.67;;;;;17.25;49.81;101652.72;5053195;28;45882;-67
2022/05/07 00:55:49;;;;;;;;;9.00;9.00;;;;;17.17;50.04;101653.13;5063034;27;45538;-68
2022/05/07 00:58:22;;;;;;;;;14.33;11.67;;;;;17.18;49.69;101646.84;5073213;27;45452;-66
2022/05/07 01:00:47;;;;;;;;;11.67;11.67;;;;;17.19;50.05;101648.56;5055609;28;45531;-66
2022/05/07 01:03:14;;;;;;;;;10.67;9.33;;;;;17.18;50.01;101644.19;5071014;27;45635;-64
2022/05/07 01:05:40;;;;;;;;;9.33;9.33;;;;;17.20;50.01;101645.84;5067301;28;45570;-65
2022/05/07 01:08:08;;;;;;;;;10.00;10.00;;;;;17.22;49.67;101645.75;5069486;28;45541;-66
2022/05/07 01:10:33;;;;;;;;;8.33;8.33;;;;;17.17;49.64;101642.50;5053422;28;45644;-66
2022/05/07 01:12:59;;;;;;;;;7.67;7.67;;;;;17.13;49.95;101648.88;5051459;28;46331;-64
2022/05/07 01:15:25;;;;;;;;;9.67;9.33;;;;;17.11;50.50;101640.09;5060812;27;45516;-65
2022/05/07 01:17:50;;;;;;;;;13.00;11.33;;;;;17.14;49.56;101651.47;5058078;27;45563;-65
2022/05/07 01:20:16;;;;;;;;;11.67;10.33;;;;;17.15;49.91;101644.34;5052480;28;50100;-65
2022/05/07 01:22:42;;;;;;;;;12.33;12.33;;;;;17.06;50.16;101642.09;5067950;28;45505;-66
2022/05/07 01:25:08;;;;;;;;;9.67;8.00;;;;;17.02;50.33;101646.69;5052809;28;45463;-65
2022/05/07 01:27:33;;;;;;;;;12.00;11.00;;;;;17.01;50.11;101650.28;5059800;28;45493;-66
2022/05/07 01:29:59;;;;;;;;;11.00;11.00;;;;;17.00;50.34;101651.22;5071339;28;45595;-66
2022/05/07 01:32:24;;;;;;;;;10.00;10.00;;;;;16.95;49.57;101648.78;5070938;28;47404;-65
2022/05/07 01:34:51;;;;;;;;;11.00;11.00;;;;;16.92;50.02;101642.72;5072984;28;45509;-65
2022/05/07 01:37:17;;;;;;;;;12.00;12.00;;;;;16.93;50.10;101636.50;5055165;27;45599;-65
2022/05/07 01:39:42;;;;;;;;;11.33;11.00;;;;;16.93;50.29;101649.78;5052061;28;45517;-65
2022/05/07 01:42:07;;;;;;;;;12.33;12.33;;;;;16.91;50.49;101641.88;5057424;28;47485;-67
2022/05/07 01:44:33;;;;;;;;;12.33;11.67;;;;;16.86;51.28;101643.88;5077199;27;45476;-67
2022/05/07 01:49:43;;;;;;;;;13.33;13.00;;;;;16.79;50.63;101637.09;5071983;28;45628;-67
2022/05/07 01:52:08;;;;;;;;;13.00;13.00;;;;;16.70;51.86;101646.31;5071197;28;46009;-66
2022/05/07 01:54:33;;;;;;;;;13.00;10.00;;;;;16.64;51.61;101641.28;5072350;28;45487;-67
2022/05/07 01:56:59;;;;;;;;;12.00;11.33;;;;;16.62;51.54;101645.78;5068615;28;45585;-65
2022/05/07 01:59:24;;;;;;;;;12.33;10.33;;;;;16.60;51.44;101642.31;5053393;27;45579;-66
2022/05/07 02:01:49;;;;;;;;;11.00;11.00;;;;;16.58;51.30;101638.91;5070226;28;47050;-65
2022/05/07 02:04:15;;;;;;;;;12.00;12.00;;;;;16.58;51.20;101633.59;5070520;28;45590;-66
2022/05/07 02:06:40;;;;;;;;;11.00;11.00;;;;;16.56;52.00;101646.06;5069055;28;45492;-65
2022/05/07 02:09:05;;;;;;;;;8.00;6.67;;;;;16.59;51.92;101629.97;5066954;28;45440;-65
2022/05/07 02:11:31;;;;;;;;;11.33;11.00;;;;;16.60;51.09;101638.81;5070945;28;46029;-65
2022/05/07 02:13:56;;;;;;;;;13.33;12.00;;;;;16.61;51.27;101641.41;5073553;27;45430;-64
2022/05/07 02:16:21;;;;;;;;;12.33;12.33;;;;;16.59;51.16;101627.31;5070012;28;45736;-65
2022/05/07 02:18:47;;;;;;;;;12.00;12.00;;;;;16.58;51.02;101630.94;5075984;28;45492;-65
2022/05/07 02:21:12;;;;;;;;;12.00;12.00;;;;;16.58;51.50;101625.63;5075524;28;45917;-66
2022/05/07 02:23:37;;;;;;;;;12.00;12.00;;;;;16.57;51.93;101624.72;5069338;28;45731;-67
2022/05/07 02:26:03;;;;;;;;;11.00;10.67;;;;;16.56;51.39;101628.31;5055699;28;45652;-65
2022/05/07 02:28:28;;;;;;;;;11.00;11.00;;;;;16.56;51.55;101623.00;5055537;28;45497;-65
2022/05/07 02:30:53;;;;;;;;;14.67;13.00;;;;;16.59;52.04;101629.97;5058296;28;46385;-66
2022/05/07 02:33:19;;;;;;;;;15.33;14.33;;;;;16.54;51.32;101619.56;5055005;28;45426;-67
2022/05/07 02:35:45;;;;;;;;;11.00;11.00;;;;;16.58;51.16;101622.97;5055264;28;45961;-65
2022/05/07 02:38:10;;;;;;;;;14.67;12.00;;;;;16.59;52.17;101624.66;5069599;28;45520;-65
2022/05/07 02:43:19;;;;;;;;;12.67;12.67;;;;;16.37;51.49;101608.81;5075548;28;45448;-67
2022/05/07 02:45:45;;;;;;;;;11.00;11.00;;;;;16.44;51.66;101628.88;5070756;27;45490;-67
2022/05/07 02:48:10;;;;;;;;;13.00;13.00;;;;;16.43;52.02;101623.63;5071549;27;45517;-65
2022/05/07 02:50:35;;;;;;;;;11.00;11.00;;;;;16.44;52.35;101628.00;5075332;27;48281;-65
2022/05/07 02:53:01;;;;;;;;;12.00;12.00;;;;;16.37;52.59;101629.19;5074575;28;58781;-64
2022/05/07 02:55:26;;;;;;;;;14.00;12.67;;;;;16.26;52.26;101624.34;5073330;28;45519;-64
2022/05/07 02:57:51;;;;;;;;;11.67;11.67;;;;;16.29;52.22;101629.53;5071147;28;45643;-65
2022/05/07 03:00:17;;;;;;;;;14.00;12.33;;;;;16.28;52.33;101628.66;5068412;27;46048;-65
2022/05/07 03:02:42;;;;;;;;;12.00;12.00;;;;;16.22;52.17;101633.34;5075360;27;45663;-66
2022/05/07 03:05:08;;;;;;;;;11.00;11.00;;;;;16.18;53.11;101626.47;5074970;27;45471;-64
2022/05/07 03:07:33;;;;;;;;;11.00;11.00;;;;;16.20;53.60;101621.94;5073431;28;45549;-66
2022/05/07 03:09:58;;;;;;;;;11.00;11.00;;;;;16.21;53.77;101631.66;5075184;28;46118;-65
2022/05/07 03:12:24;;;;;;;;;14.33;13.33;;;;;16.17;53.35;101625.59;5074731;27;49944;-66
2022/05/07 03:14:50;;;;;;;;;10.00;10.00;;;;;16.18;53.90;101623.81;5068711;27;45490;-66
2022/05/07 03:17:16;;;;;;;;;10.00;10.00;;;;;16.24;53.44;101623.56;5054935;28;45779;-67
2022/05/07 03:19:42;;;;;;;;;11.00;10.00;;;;;16.25;52.75;101618.16;5053703;28;45989;-63
2022/05/07 03:22:07;;;;;;;;;9.33;9.33;;;;;16.24;52.88;101613.78;5053686;28;45418;-66
2022/05/07 03:24:33;;;;;;;;;13.33;12.33;;;;;16.23;52.98;101621.84;5055139;28;51499;-66
2022/05/07 03:27:00;;;;;;;;;9.67;9.67;;;;;16.20;52.95;101616.63;5054737;28;45462;-65
2022/05/07 03:29:25;;;;;;;;;11.33;11.33;;;;;16.15;53.62;101618.63;5056905;28;45451;-64
2022/05/07 03:31:50;;;;;;;;;12.00;12.00;;;;;16.12;53.35;101619.63;5074873;28;45544;-66
2022/05/07 03:34:16;;;;;;;;;14.33;12.67;;;;;16.16;53.42;101623.88;5072920;28;45530;-66
2022/05/07 03:36:42;;;;;;;;;11.67;11.67;;;;;16.15;53.10;101624.81;5074981;28;45473;-65
2022/05/07 03:39:07;;;;;;;;;11.67;11.00;;;;;16.07;54.14;101619.81;5074497;27;45828;-64
2022/05/07 03:41:32;;;;;;;;;12.67;11.00;;;;;16.09;53.55;101617.09;5063135;27;45434;-66
2022/05/07 03:43:58;;;;;;;;;12.67;12.33;;;;;16.08;54.31;101610.06;5055710;28;45461;-66
2022/05/07 03:46:25;;;;;;;;;14.00;13.33;;;;;16.15;54.18;101615.97;5070976;28;45554;-64
2022/05/07 03:48:50;;;;;;;;;16.00;14.33;;;;;15.99;53.97;101603.34;5069260;28;45636;-65
2022/05/07 03:51:15;;;;;;;;;13.00;13.00;;;;;16.02;54.38;101611.19;5054885;28;45523;-63
2022/05/07 03:53:41;;;;;;;;;12.67;11.00;;;;;15.98;54.37;101612.22;5054176;28;45705;-64
2022/05/07 03:56:08;;;;;;;;;14.33;13.00;;;;;15.98;54.76;101620.19;5054280;28;45576;-65
2022/05/07 03:58:36;;;;;;;;;14.67;13.33;;;;;15.94;54.28;101607.13;5074538;28;45544;-65
2022/05/07 04:01:02;;;;;;;;;16.67;13.67;;;;;15.88;55.55;101613.56;5060480;28;45423;-66
2022/05/07 04:03:29;;;;;;;;;13.67;13.00;;;;;15.81;54.83;101606.78;5054039;28;45485;-65
2022/05/07 04:05:56;;;;;;;;;14.00;14.00;;;;;15.75;55.09;101602.59;5053974;28;45417;-64
2022/05/07 04:08:23;;;;;;;;;17.67;17.67;;;;;15.71;55.08;101603.63;5053811;28;45475;-65
2022/05/07 04:10:49;;;;;;;;;15.00;15.00;;;;;15.76;55.44;101598.13;5064961;28;45561;-64
2022/05/07 04:13:15;;;;;;;;;19.00;17.67;;;;;15.70;55.09;101595.75;5054067;27;45400;-66
2022/05/07 04:15:43;;;;;;;;;13.00;13.00;;;;;15.74;56.10;101606.13;5059844;28;45441;-66
2022/05/07 04:18:09;;;;;;;;;14.00;11.67;;;;;15.79;55.54;101608.63;5054673;28;46001;-65
2022/05/07 04:20:34;;;;;;;;;15.67;14.67;;;;;15.84;55.12;101607.50;5053857;28;45461;-64
2022/05/07 04:23:00;;;;;;;;;12.00;12.00;;;;;15.82;55.32;101604.03;5056054;28;45573;-64
2022/05/07 04:25:26;;;;;;;;;17.33;15.33;;;;;15.81;55.46;101598.81;5060976;28;45447;-64
2022/05/07 04:27:51;;;;;;;;;16.33;15.00;;;;;15.77;55.39;101590.13;5053377;28;46022;-64
2022/05/07 04:30:17;;;;;;;;;18.00;14.33;;;;;15.87;55.35;101599.41;5054590;28;45614;-63
2022/05/07 04:32:42;;;;;;;;;21.00;18.67;;;;;15.89;54.98;101610.81;5053303;28;45542;-64
2022/05/07 04:35:07;;;;;;;;;16.00;14.67;;;;;15.93;55.66;101605.38;5053760;28;45548;-66
2022/05/07 04:37:33;;;;;;;;;12.00;12.00;;;;;15.85;55.03;101592.44;5053536;28;46110;-65
2022/05/07 04:39:58;;;;;;;;;18.33;17.00;;;;;15.98;54.59;101612.22;5054863;28;45799;-65
2022/05/07 04:42:24;;;;;;;;;18.00;14.67;;;;;15.97;55.80;101615.81;5065222;28;45609;-65
2022/05/07 04:44:49;;;;;;;;;19.33;16.33;;;;;15.92;55.29;101607.19;5081866;27;45414;-64
2022/05/07 04:47:15;;;;;;;;;16.33;16.00;;;;;16.03;54.96;101610.25;5054301;28;45441;-63
2022/05/07 04:49:40;;;;;;;;;19.67;16.67;;;;;15.98;55.71;101598.97;5053340;28;45515;-65
2022/05/07 04:52:05;;;;;;;;;19.00;16.33;;;;;16.01;55.37;101608.59;5070951;28;45413;-64
2022/05/07 04:54:31;;;;;;;;;19.67;19.67;;;;;16.03;55.82;101617.34;5053351;28;45581;-66
2022/05/07 04:56:57;;;;;;;;;18.67;17.33;;;;;15.97;55.89;101612.31;5053171;28;46225;-64
2022/05/07 04:59:23;;;;;;;;;20.00;16.33;;;;;15.94;55.69;101612.44;5052990;28;45497;-64
2022/05/07 05:01:48;;;;;;;;;18.00;18.00;;;;;15.92;55.60;101603.66;5054905;28;45529;-65
2022/05/07 05:04:14;;;;;;;;;18.00;18.00;;;;;15.88;56.01;101609.09;5052768;28;45601;-64
2022/05/07 05:06:40;;;;;;;;;19.00;16.00;;;;;15.84;55.90;101599.53;5053139;28;46181;-64
2022/05/07 05:09:06;;;;;;;;;18.00;16.67;;;;;15.81;56.56;101598.81;5059104;27;45549;-65
2022/05/07 05:11:33;;;;;;;;;14.33;14.33;;;;;15.79;56.81;101612.13;5066082;27;45505;-64
2022/05/07 05:13:58;;;;;;;;;18.33;17.67;;;;;15.81;56.24;101617.38;5054183;28;45616;-65
2022/05/07 05:16:24;;;;;;;;;17.33;15.67;;;;;15.83;55.97;101615.53;5066375;27;46030;-65
2022/05/07 05:18:49;;;;;;;;;14.33;14.33;;;;;15.81;56.45;101615.59;5071427;28;45510;-64
2022/05/07 05:21:15;;;;;;;;;18.33;17.33;;;;;15.82;55.98;101614.66;5060071;28;45706;-65
2022/05/07 05:23:41;;;;;;;;;16.33;16.33;;;;;15.87;56.16;101617.13;5053167;28;45486;-64
2022/05/07 05:26:10;;;;;;;;;18.33;17.33;;;;;15.81;56.28;101614.72;5051741;28;46138;-63
2022/05/07 05:28:37;;;;;;;;;18.67;18.33;;;;;15.82;55.86;101608.47;5054108;28;45554;-65
2022/05/07 05:31:03;;;;;;;;;18.67;16.67;;;;;15.83;56.44;101597.81;5060491;28;45578;-65
2022/05/07 05:33:28;;;;;;;;;18.00;18.00;;;;;15.91;55.59;101602.81;5069112;27;45466;-65
2022/05/07 05:35:53;;;;;;;;;19.33;18.00;;;;;15.89;55.92;101596.69;5051199;28;45644;-63
2022/05/07 05:38:19;;;;;;;;;20.00;18.00;;;;;15.91;56.50;101602.81;5061498;28;45401;-63
2022/05/07 05:40:44;;;;;;;;;18.67;18.00;;;;;15.92;55.62;101599.22;5073287;27;45814;-65
2022/05/07 05:43:10;;;;;;;;;19.00;17.67;;;;;15.97;55.77;101601.69;5071214;27;45601;-60
2022/05/07 05:45:36;;;;;;;;;15.00;15.00;;;;;15.91;56.67;101610.78;5064858;28;45523;-61
2022/05/07 05:48:04;;;;;;;;;20.00;20.00;;;;;15.92;56.61;101601.88;5075564;27;45495;-63
2022/05/07 05:50:30;;;;;;;;;19.33;17.67;;;;;15.95;56.83;101615.00;5075298;27;45618;-62
2022/05/07 05:52:56;;;;;;;;;21.67;21.33;;;;;15.92;56.46;101612.50;5076580;27;45483;-63
2022/05/07 05:55:21;;;;;;;;;18.33;18.33;;;;;15.97;56.96;101617.63;5060354;27;45544;-60
2022/05/07 05:57:47;;;;;;;;;19.00;18.00;;;;;16.01;55.87;101614.78;5064835;28;45517;-62
2022/05/07 06:00:12;;;;;;;;;19.33;18.00;;;;;16.00;56.55;101610.38;5059768;27;45558;-59
2022/05/07 06:02:38;;;;;;;;;22.00;20.67;;;;;15.98;57.04;101608.72;5072709;27;45445;-60
2022/05/07 06:05:04;;;;;;;;;21.33;20.33;;;;;15.98;56.37;101614.88;5066001;28;45493;-60
2022/05/07 06:07:29;;;;;;;;;26.00;22.00;;;;;15.95;56.56;101617.66;5065602;27;45627;-61
2022/05/07 06:09:55;;;;;;;;;22.67;22.67;;;;;15.98;56.29;101617.53;5074890;27;45530;-60
2022/05/07 06:12:21;;;;;;;;;16.67;16.67;;;;;16.04;55.73;101614.66;5075906;28;45539;-61
2022/05/07 06:14:47;;;;;;;;;19.67;19.00;;;;;16.03;56.24;101612.91;5061557;28;45819;-60
2022/05/07 06:17:12;;;;;;;;;24.00;22.33;;;;;15.99;56.92;101611.31;5073127;27;45468;-61
2022/05/07 06:19:38;;;;;;;;;24.00;21.00;;;;;16.00;56.94;101615.69;5065610;27;45387;-60
2022/05/07 06:22:03;;;;;;;;;14.67;14.67;;;;;15.96;56.51;101614.09;5069759;28;45545;-60
2022/05/07 06:30:00;;;;;;;;;25.67;24.33;;;;;15.99;57.08;101616.63;5069220;28;45442;-60
2022/05/07 06:32:36;;;;;;;;;21.67;21.00;;;;;15.99;57.04;101623.72;5076054;27;45667;-59
2022/05/07 06:35:03;;;;;;;;;17.00;17.00;;;;;15.97;57.25;101625.56;5075778;28;45598;-60
2022/05/07 06:37:29;;;;;;;;;24.33;21.33;;;;;15.90;56.73;101624.94;5075612;28;45514;-59
2022/05/07 06:39:55;;;;;;;;;24.67;23.00;;;;;15.81;57.43;101631.50;5075682;27;45410;-59
2022/05/07 06:42:20;;;;;;;;;17.00;17.00;;;;;15.78;57.52;101636.94;5075401;27;45659;-60
2022/05/07 06:44:45;;;;;;;;;21.33;20.67;;;;;15.73;58.05;101641.56;5075622;27;45426;-59
2022/05/07 06:47:11;;;;;;;;;20.33;20.00;;;;;15.77;58.00;101647.59;5075356;27;45433;-59
2022/05/07 06:49:37;;;;;;;;;19.00;19.00;;;;;15.71;58.23;101647.84;5075737;27;45504;-60
2022/05/07 06:52:03;;;;;;;;;18.33;18.33;;;;;15.70;58.69;101654.94;5074251;28;45577;-59
2022/05/07 06:54:28;;;;;;;;;22.67;22.67;;;;;15.71;59.07;101650.50;5075113;27;45523;-59
2022/05/07 06:56:54;;;;;;;;;20.00;20.00;;;;;15.60;58.17;101650.91;5075197;27;45506;-60
2022/05/07 06:59:20;;;;;;;;;20.33;20.33;;;;;15.61;58.95;101653.50;5075160;28;45485;-59
2022/05/07 07:01:46;;;;;;;;;24.67;23.33;;;;;15.66;57.34;101663.91;5075621;27;45356;-60
2022/05/07 07:04:11;;;;;;;;;21.00;21.00;;;;;15.70;58.97;101656.75;5074917;27;45646;-59
2022/05/07 07:06:37;;;;;;;;;21.67;21.67;;;;;15.77;58.38;101663.50;5074947;27;45509;-60
2022/05/07 07:09:03;;;;;;;;;24.67;24.67;;;;;15.72;58.43;101663.72;5075464;27;45768;-60
2022/05/07 07:11:28;;;;;;;;;26.33;23.67;;;;;15.78;58.93;101662.59;5075358;27;45450;-60
2022/05/07 07:13:54;;;;;;;;;25.67;24.00;;;;;15.79;58.47;101659.88;5074878;27;46110;-60
2022/05/07 07:16:19;;;;;;;;;23.33;21.67;;;;;15.86;57.98;101657.84;5075230;27;45416;-60
2022/05/07 07:18:44;;;;;;;;;24.67;20.00;;;;;15.85;58.30;101661.41;5075048;27;45516;-60
2022/05/07 07:21:11;;;;;;;;;22.00;20.67;;;;;15.80;58.34;101658.97;5074996;27;45641;-61
2022/05/07 07:23:36;;;;;;;;;24.33;21.00;;;;;15.76;57.96;101656.50;5074763;27;45494;-59
2022/05/07 07:26:02;;;;;;;;;22.00;18.33;;;;;15.83;57.82;101658.84;5074839;27;45488;-59
2022/05/07 07:28:27;;;;;;;;;20.67;19.00;;;;;15.80;57.52;101650.16;5075048;27;45493;-60
2022/05/07 07:30:52;;;;;;;;;23.67;22.33;;;;;15.88;58.65;101653.34;5074774;27;45559;-59
2022/05/07 07:33:18;;;;;;;;;23.33;20.00;;;;;15.88;57.93;101656.88;5074757;27;45432;-59
2022/05/07 07:35:43;;;;;;;;;13.67;11.33;;;;;15.92;58.14;101660.25;5073251;28;45540;-60
2022/05/07 07:38:09;;;;;;;;;19.67;18.33;;;;;15.96;57.48;101667.16;5074818;27;45486;-59
2022/05/07 07:40:35;;;;;;;;;19.33;17.67;;;;;16.03;57.53;101663.31;5074781;27;45512;-59
2022/05/07 07:43:00;;;;;;;;;27.00;22.00;;;;;16.11;57.32;101663.88;5074792;28;46051;-60
2022/05/07 07:48:10;;;;;;;;;26.33;24.33;;;;;16.20;56.85;101667.06;5074724;28;45538;-60
2022/05/07 07:50:38;;;;;;;;;21.00;19.00;;;;;16.25;57.20;101670.38;5074335;27;45617;-60
2022/05/07 07:53:06;;;;;;;;;27.33;23.33;;;;;16.31;57.10;101655.09;5074675;27;46048;-60
2022/05/07 07:55:32;;;;;;;;;22.33;19.33;;;;;16.40;57.19;101655.63;5074382;28;45509;-60
2022/05/07 07:57:59;;;;;;;;;21.67;20.00;;;;;16.43;56.67;101660.78;5074526;27;45457;-60
2022/05/07 08:00:26;;;;;;;;;13.33;13.33;;;;;16.43;56.20;101663.44;5074323;28;45529;-60
2022/05/07 08:02:52;;;;;;;;;22.67;21.00;;;;;16.41;56.71;101660.84;5074363;27;46329;-60
2022/05/07 08:05:21;;;;;;;;;21.00;18.33;;;;;16.45;56.04;101656.28;5074060;27;45437;-60
2022/05/07 08:13:14;;;;;;;;;21.33;20.67;;;;;16.53;56.27;101656.81;5073991;28;45540;-60
2022/05/07 08:15:41;;;;;;;;;20.33;19.00;;;;;16.54;55.97;101654.06;5074092;27;45492;-60
2022/05/07 08:18:06;;;;;;;;;25.33;24.00;;;;;16.59;56.15;101663.66;5074133;27;45552;-60
2022/05/07 08:20:32;;;;;;;;;19.67;19.00;;;;;16.57;56.24;101661.06;5074240;27;45570;-60
2022/05/07 08:22:57;;;;;;;;;21.00;19.33;;;;;16.60;55.58;101658.25;5074023;27;45487;-60
2022/05/07 08:25:22;;;;;;;;;18.00;18.00;;;;;16.55;56.41;101645.19;5074163;27;45558;-61
2022/05/07 08:27:48;;;;;;;;;20.00;19.00;;;;;16.61;56.10;101640.56;5074124;27;45549;-60
2022/05/07 08:30:13;;;;;;;;;24.33;20.00;;;;;16.65;56.31;101652.75;5074025;27;45566;-59
2022/05/07 08:32:39;;;;;;;;;21.00;17.67;;;;;16.61;55.95;101651.19;5073671;27;45511;-59
2022/05/07 08:35:05;;;;;;;;;23.33;21.33;;;;;16.61;56.48;101652.03;5073709;27;45570;-60
2022/05/07 08:37:30;;;;;;;;;21.33;20.33;;;;;16.65;56.68;101653.59;5073753;27;45523;-60
2022/05/07 08:40:01;;;;;;;;;19.33;17.67;;;;;16.74;56.55;101652.38;5073930;27;45421;-60
2022/05/07 08:42:28;;;;;;;;;17.00;14.67;;;;;16.80;55.74;101657.44;5073668;27;45533;-60
2022/05/07 08:44:56;;;;;;;;;16.00;15.00;;;;;16.81;55.34;101656.50;5073520;27;45459;-60
2022/05/07 08:47:25;;;;;;;;;23.00;21.33;;;;;16.78;55.89;101654.81;5073790;27;45538;-60
2022/05/07 08:49:51;;;;;;;;;21.67;18.00;;;;;16.83;55.58;101651.97;5073351;27;45480;-60
2022/05/07 08:52:20;;;;;;;;;17.67;17.67;;;;;16.89;55.76;101651.69;5073239;27;45487;-60
2022/05/07 08:54:45;;;;;;;;;20.00;17.33;;;;;16.94;56.24;101651.50;5073226;27;45525;-61
2022/05/07 08:57:12;;;;;;;;;19.00;18.00;;;;;16.99;55.52;101653.00;5073411;27;45490;-59
2022/05/07 08:59:37;;;;;;;;;16.67;15.67;;;;;17.02;55.53;101649.34;5073704;28;45539;-60
2022/05/07 09:02:03;;;;;;;;;22.33;19.00;;;;;17.12;55.91;101653.31;5072912;28;45881;-60
2022/05/07 09:04:28;;;;;;;;;16.67;14.67;;;;;17.17;55.45;101648.66;5073369;28;45447;-60
2022/05/07 09:06:56;;;;;;;;;16.00;16.00;;;;;17.25;55.30;101656.28;5073472;27;45646;-60
2022/05/07 09:09:21;;;;;;;;;20.00;18.67;;;;;17.20;55.53;101647.66;5073577;28;45532;-60
2022/05/07 09:11:47;;;;;;;;;20.33;18.00;;;;;17.30;54.85;101651.63;5073116;27;45480;-59
2022/05/07 09:14:14;;;;;;;;;22.33;19.00;;;;;17.31;54.70;101656.00;5073225;27;45481;-59
2022/05/07 09:16:46;;;;;;;;;21.00;19.33;;;;;17.32;54.56;101651.53;5073614;28;45498;-59
2022/05/07 09:19:27;;;;;;;;;22.00;20.33;;;;;17.39;54.57;101643.19;5076506;27;45311;-60
2022/05/07 09:22:04;;;;;;;;;18.33;18.33;;;;;17.42;54.96;101640.38;5075091;28;45569;-60
2022/05/07 09:24:29;;;;;;;;;17.33;16.33;;;;;17.42;55.02;101647.50;5076643;28;45595;-60
2022/05/07 09:26:57;;;;;;;;;19.33;18.00;;;;;17.46;54.46;101646.41;5076079;27;45563;-60
2022/05/07 09:29:26;;;;;;;;;18.33;18.33;;;;;17.48;54.44;101644.56;5075905;27;45493;-60
2022/05/07 09:31:53;;;;;;;;;19.33;19.33;;;;;17.51;54.67;101630.25;5075398;27;46383;-59
2022/05/07 09:37:18;;;;;;;;;20.67;16.33;;;;;17.62;54.50;101636.78;5076792;28;45518;-60
2022/05/07 09:39:49;;;;;;;;;16.00;16.00;;;;;17.67;54.40;101628.56;5076446;27;45546;-60
2022/05/07 09:42:18;;;;;;;;;21.33;20.33;;;;;17.69;54.58;101632.03;5076326;27;47534;-60
2022/05/07 09:44:44;;;;;;;;;19.00;19.00;;;;;17.62;54.14;101628.81;5076556;28;45377;-61
2022/05/07 09:47:12;;;;;;;;;19.33;19.00;;;;;17.66;54.63;101632.19;5076226;27;45677;-60
2022/05/07 09:50:19;;;;;;;;;20.67;19.00;;;;;17.69;54.19;101632.03;5076524;27;45497;-61
2022/05/07 09:52:27;;;;;;;;;17.00;15.00;;;;;17.79;54.40;101629.81;5075940;27;45597;-60
2022/05/07 09:57:38;;;;;;;;;22.00;20.00;;;;;17.80;54.29;101637.72;5076185;28;45571;-60
2022/05/07 10:00:10;;;;;;;;;17.00;17.00;;;;;17.86;54.11;101626.75;5076172;27;45476;-60
2022/05/07 10:02:38;;;;;;;;;22.33;17.33;;;;;17.94;54.13;101630.84;5076079;27;47197;-60
2022/05/07 10:05:09;;;;;;;;;18.00;17.33;;;;;18.03;53.75;101627.75;5075472;27;45424;-60
2022/05/07 10:07:49;;;;;;;;;19.67;18.67;;;;;18.12;53.65;101618.41;5074511;28;45454;-60
2022/05/07 10:10:36;;;;;;;;;18.67;15.67;;;;;18.22;53.00;101620.53;5075462;27;45572;-60
2022/05/07 10:13:05;;;;;;;;;20.67;20.33;;;;;18.32;53.65;101632.44;5074591;28;45870;-60
2022/05/07 10:15:31;;;;;;;;;16.67;16.33;;;;;18.41;53.30;101628.44;5076047;28;45515;-61
2022/05/07 10:17:58;;;;;;;;;20.67;19.67;;;;;18.49;52.61;101636.03;5075606;27;45438;-60
2022/05/07 10:20:24;;;;;;;;;15.33;15.33;;;;;18.52;52.65;101630.56;5075829;27;45594;-60
2022/05/07 10:22:59;;;;;;;;;20.33;20.00;;;;;18.57;52.14;101630.31;5075984;27;46029;-61
2022/05/07 10:25:25;;;;;;;;;18.00;17.00;;;;;18.57;52.78;101625.84;5075901;27;45566;-60
2022/05/07 10:27:51;;;;;;;;;18.33;18.33;;;;;18.63;52.55;101622.84;5075950;27;45429;-60
2022/05/07 10:30:22;;;;;;;;;18.00;16.33;;;;;18.73;52.47;101632.09;5075327;27;45636;-63
2022/05/07 10:32:54;;;;;;;;;24.33;21.33;;;;;18.77;52.08;101623.00;5075733;27;45957;-60
2022/05/07 10:35:47;;;;;;;;;15.67;15.00;;;;;18.80;51.76;101621.13;5075537;27;45556;-60
2022/05/07 10:38:27;;;;;;;;;17.00;16.33;;;;;18.86;52.11;101620.78;5074529;27;45670;-61
2022/05/07 10:40:57;;;;;;;;;19.67;19.67;;;;;18.88;51.46;101613.56;5075693;27;45484;-61
2022/05/07 10:43:42;;;;;;;;;17.00;17.00;;;;;18.97;52.03;101610.44;5075525;27;45528;-61
2022/05/07 10:46:11;;;;;;;;;16.67;15.33;;;;;19.07;51.71;101610.78;5075640;28;45432;-61
2022/05/07 10:48:50;;;;;;;;;18.00;17.00;;;;;19.15;51.33;101612.06;5075558;27;45518;-61
2022/05/07 10:51:50;;;;;;;;;18.67;17.00;;;;;19.18;51.07;101611.91;5075516;27;45795;-61
2022/05/07 10:54:23;;;;;;;;;18.00;18.00;;;;;19.21;51.64;101605.56;5075106;28;47109;-61
2022/05/07 10:56:53;;;;;;;;;16.33;15.00;;;;;19.30;50.73;101606.84;5075092;27;45505;-60
2022/05/07 10:59:20;;;;;;;;;16.67;13.00;;;;;19.31;51.13;101600.53;5075424;27;45521;-60
2022/05/07 11:01:46;;;;;;;;;16.00;13.67;;;;;19.36;50.68;101606.50;5075519;27;45618;-60
2022/05/07 11:04:13;;;;;;;;;16.67;14.67;;;;;19.36;50.64;101604.69;5075191;27;45493;-60
2022/05/07 11:06:45;;;;;;;;;21.50;19.50;;;;;19.38;50.41;101599.28;5075129;27;45415;-61
2022/05/07 11:09:15;;;;;;;;;16.67;16.33;;;;;19.36;50.73;101591.34;5075416;28;45430;-60
2022/05/07 11:11:44;;;;;;;;;15.00;14.67;;;;;19.47;50.02;101595.22;5075369;27;45618;-60
2022/05/07 11:14:10;;;;;;;;;16.67;13.33;;;;;19.53;50.00;101594.84;5075082;27;46273;-60
2022/05/07 11:16:40;;;;;;;;;13.33;11.67;;;;;19.56;49.92;101592.88;5074932;27;45533;-60
2022/05/07 11:19:06;;;;;;;;;15.67;15.00;;;;;19.60;50.26;101585.56;5075150;27;45478;-60
2022/05/07 11:21:36;;;;;;;;;14.33;13.33;;;;;19.65;49.64;101588.81;5074975;27;46181;-60
2022/05/07 11:24:01;;;;;;;;;13.67;13.67;;;;;19.70;49.55;101596.63;5074801;27;45507;-60
2022/05/07 11:26:27;;;;;;;;;12.00;12.00;;;;;19.72;49.63;101584.91;5075081;27;45472;-60
2022/05/07 11:28:53;;;;;;;;;15.33;14.33;;;;;19.69;49.25;101584.19;5075016;27;45469;-60
2022/05/07 11:31:25;;;;;;;;;15.00;15.00;;;;;19.70;49.03;101592.13;5075012;27;45695;-60
2022/05/07 11:34:02;;;;;;;;;15.33;13.67;;;;;19.70;49.37;101586.78;5074389;27;45527;-60
2022/05/07 11:36:28;;;;;;;;;14.33;13.67;;;;;19.70;49.62;101591.28;5073108;28;45430;-61
2022/05/07 11:39:01;;;;;;;;;14.33;12.67;;;;;19.75;49.12;101599.88;5074678;27;45441;-61
2022/05/07 11:41:27;;;;;;;;;19.00;16.00;;;;;19.72;49.71;101586.69;5073574;27;45592;-61